createdAt,value
2022-11-05T00:01:54.606Z,101553.44
2022-11-05T00:04:56.079Z,101557.81
2022-11-05T00:08:00.308Z,101561.31
2022-11-05T00:11:01.677Z,101559.47
2022-11-05T00:14:03.143Z,101562.84
2022-11-05T00:17:04.579Z,101560.13
2022-11-05T00:20:07.271Z,101553.97
2022-11-05T00:23:09.072Z,101559.19
2022-11-05T00:26:11.883Z,101564.31
2022-11-05T00:29:13.293Z,101572.94
2022-11-05T00:32:14.785Z,101570.28
2022-11-05T00:35:19.203Z,101573.06
2022-11-05T00:38:20.648Z,101582.75
2022-11-05T00:41:22.022Z,101585.34
2022-11-05T00:44:23.405Z,101590.56
2022-11-05T00:47:24.791Z,101588.75
2022-11-05T00:50:26.829Z,101588.72
2022-11-05T00:53:28.329Z,101583.44
2022-11-05T00:56:29.727Z,101589.50
2022-11-05T00:59:31.274Z,101597.34
2022-11-05T01:02:32.910Z,101595.66
2022-11-05T01:05:38.964Z,101597.56
2022-11-05T01:08:42.162Z,101597.78
2022-11-05T01:11:43.558Z,101603.28
2022-11-05T01:14:44.969Z,101596.63
2022-11-05T01:17:46.582Z,101600.38
2022-11-05T01:20:48.416Z,101604.03
2022-11-05T01:23:49.813Z,101620.78
2022-11-05T01:26:51.230Z,101621.03
2022-11-05T01:29:52.631Z,101613.19
2022-11-05T01:32:54.089Z,101610.56
2022-11-05T01:35:55.486Z,101609.66
2022-11-05T01:38:56.906Z,101611.34
2022-11-05T01:41:58.358Z,101617.38
2022-11-05T01:45:02.697Z,101611.19
2022-11-05T01:48:33.968Z,101605.78
2022-11-05T01:51:35.421Z,101596.00
2022-11-05T01:54:36.894Z,101601.00
2022-11-05T01:57:38.547Z,101591.13
2022-11-05T02:00:42.278Z,101599.56
2022-11-05T02:03:45.018Z,101592.47
2022-11-05T02:06:46.692Z,101592.34
2022-11-05T02:10:02.940Z,101580.94
2022-11-05T02:13:04.380Z,101591.22
2022-11-05T02:16:29.037Z,101591.91
2022-11-05T02:19:58.081Z,101595.31
2022-11-05T02:23:24.946Z,101604.03
2022-11-05T02:26:48.323Z,101602.25
2022-11-05T02:30:07.601Z,101600.50
2022-11-05T02:33:33.520Z,101603.97
2022-11-05T02:36:40.058Z,101607.44
2022-11-05T02:39:59.178Z,101609.22
2022-11-05T02:43:40.224Z,101601.16
2022-11-05T02:47:05.592Z,101616.31
2022-11-05T02:50:23.390Z,101607.94
2022-11-05T02:53:47.958Z,101611.81
2022-11-05T02:56:52.655Z,101612.88
2022-11-05T03:00:02.004Z,101613.81
2022-11-05T03:03:05.586Z,101607.75
2022-11-05T03:06:37.758Z,101615.63
2022-11-05T03:09:47.410Z,101599.06
2022-11-05T03:12:57.818Z,101611.28
2022-11-05T03:16:06.585Z,101612.16
2022-11-05T03:19:17.359Z,101608.66
2022-11-05T03:22:24.806Z,101610.44
2022-11-05T03:25:30.204Z,101597.38
2022-11-05T03:28:36.200Z,101602.66
2022-11-05T03:31:39.493Z,101609.69
2022-11-05T03:34:51.281Z,101610.66
2022-11-05T03:37:59.195Z,101602.88
2022-11-05T03:41:13.646Z,101613.41
2022-11-05T03:44:19.032Z,101617.75
2022-11-05T03:47:26.027Z,101613.41
2022-11-05T03:50:41.060Z,101614.28
2022-11-05T03:53:49.774Z,101610.78
2022-11-05T03:57:02.026Z,101601.19
2022-11-05T04:00:08.529Z,101601.19
2022-11-05T04:03:13.274Z,101605.53
2022-11-05T04:06:15.952Z,101595.94
2022-11-05T04:09:17.435Z,101608.19
2022-11-05T04:12:18.991Z,101604.69
2022-11-05T04:15:20.420Z,101605.56
2022-11-05T04:18:22.302Z,101609.03
2022-11-05T04:21:23.766Z,101607.28
2022-11-05T04:24:25.166Z,101616.00
2022-11-05T04:27:26.616Z,101613.31
2022-11-05T04:30:28.051Z,101616.75
2022-11-05T04:33:29.450Z,101616.75
2022-11-05T04:36:31.484Z,101618.47
2022-11-05T04:39:32.910Z,101618.41
2022-11-05T04:42:34.306Z,101603.53
2022-11-05T04:45:36.572Z,101614.91
2022-11-05T04:48:38.588Z,101619.25
2022-11-05T04:51:40.032Z,101616.69
2022-11-05T04:54:41.420Z,101619.34
2022-11-05T04:57:43.135Z,101619.31
2022-11-05T05:00:44.653Z,101620.16
2022-11-05T05:03:51.108Z,101614.91
2022-11-05T05:06:52.518Z,101620.09
2022-11-05T05:09:54.292Z,101612.25
2022-11-05T05:12:55.712Z,101606.13
2022-11-05T05:15:57.112Z,101605.31
2022-11-05T05:18:58.515Z,101609.63
2022-11-05T05:21:59.952Z,101606.13
2022-11-05T05:25:01.860Z,101615.66
2022-11-05T05:28:03.263Z,101619.16
2022-11-05T05:31:04.840Z,101625.31
2022-11-05T05:34:07.207Z,101622.69
2022-11-05T05:37:08.656Z,101627.88
2022-11-05T05:40:10.966Z,101629.72
2022-11-05T05:43:12.585Z,101630.56
2022-11-05T05:46:16.040Z,101626.19
2022-11-05T05:49:17.441Z,101627.97
2022-11-05T05:52:18.855Z,101632.44
2022-11-05T05:55:20.394Z,101629.84
2022-11-05T05:58:23.147Z,101633.41
2022-11-05T06:01:24.585Z,101638.56
2022-11-05T06:04:26.606Z,101642.06
2022-11-05T06:07:30.745Z,101651.66
2022-11-05T06:10:36.041Z,101646.41
2022-11-05T06:13:37.749Z,101649.03
2022-11-05T06:16:40.079Z,101651.66
2022-11-05T06:19:41.487Z,101648.19
2022-11-05T06:22:42.919Z,101656.03
2022-11-05T06:25:44.308Z,101657.81
2022-11-05T06:28:46.168Z,101656.88
2022-11-05T06:31:47.587Z,101655.13
2022-11-05T06:34:49.050Z,101651.59
2022-11-05T06:37:50.501Z,101650.69
2022-11-05T06:40:51.902Z,101651.53
2022-11-05T06:43:53.313Z,101657.66
2022-11-05T06:46:54.796Z,101657.66
2022-11-05T06:49:56.202Z,101661.91
2022-11-05T06:53:00.010Z,101658.41
2022-11-05T06:56:03.364Z,101662.75
2022-11-05T06:59:04.773Z,101667.94
2022-11-05T07:02:07.606Z,101661.91
2022-11-05T07:05:09.337Z,101662.88
2022-11-05T07:08:10.740Z,101670.72
2022-11-05T07:11:12.134Z,101669.03
2022-11-05T07:14:13.721Z,101670.78
2022-11-05T07:17:17.563Z,101676.03
2022-11-05T07:20:18.985Z,101670.84
2022-11-05T07:23:20.410Z,101673.44
2022-11-05T07:26:21.845Z,101673.50
2022-11-05T07:29:23.235Z,101672.72
2022-11-05T07:32:24.625Z,101676.25
2022-11-05T07:35:26.791Z,101675.38
2022-11-05T07:38:28.200Z,101681.53
2022-11-05T07:41:29.588Z,101688.56
2022-11-05T07:44:30.978Z,101684.22
2022-11-05T07:47:32.370Z,101684.19
2022-11-05T07:50:37.591Z,101685.94
2022-11-05T07:53:44.086Z,101694.69
2022-11-05T07:56:47.462Z,101685.09
2022-11-05T07:59:48.899Z,101681.63
2022-11-05T08:03:08.752Z,101684.25
2022-11-05T08:06:10.517Z,101691.28
2022-11-05T08:09:12.013Z,101688.66
2022-11-05T08:12:13.471Z,101693.03
2022-11-05T08:15:14.909Z,101686.94
2022-11-05T08:18:17.741Z,101692.16
2022-11-05T08:21:19.268Z,101690.41
2022-11-05T08:24:20.724Z,101691.25
2022-11-05T08:27:22.133Z,101691.25
2022-11-05T08:30:23.632Z,101695.63
2022-11-05T08:33:25.852Z,101698.25
2022-11-05T08:36:27.248Z,101695.63
2022-11-05T08:39:28.715Z,101698.25
2022-11-05T08:42:30.111Z,101702.59
2022-11-05T08:45:32.170Z,101693.88
2022-11-05T08:48:33.580Z,101703.50
2022-11-05T08:51:35.004Z,101698.25
2022-11-05T08:54:36.404Z,101706.13
2022-11-05T08:57:37.811Z,101701.72
2022-11-05T09:00:39.897Z,101709.56
2022-11-05T09:03:41.450Z,101713.06
2022-11-05T09:06:42.861Z,101713.94
2022-11-05T09:09:44.285Z,101707.75
2022-11-05T09:12:45.743Z,101715.66
2022-11-05T09:15:48.788Z,101709.47
2022-11-05T09:18:50.438Z,101709.19
2022-11-05T09:21:51.863Z,101701.66
2022-11-05T09:24:53.310Z,101703.50
2022-11-05T09:28:04.668Z,101700.09
2022-11-05T09:31:08.180Z,101701.75
2022-11-05T09:34:09.614Z,101702.72
2022-11-05T09:37:11.381Z,101696.59
2022-11-05T09:40:17.864Z,101704.47
2022-11-05T09:43:24.977Z,101710.56
2022-11-05T09:46:40.585Z,101708.69
2022-11-05T09:49:45.919Z,101708.53
2022-11-05T09:52:47.354Z,101710.97
2022-11-05T09:55:53.414Z,101713.56
2022-11-05T09:59:02.948Z,101714.44
2022-11-05T10:02:15.398Z,101718.78
2022-11-05T10:05:18.618Z,101712.50
2022-11-05T10:08:26.828Z,101720.44
2022-11-05T10:11:44.525Z,101712.56
2022-11-05T10:15:00.192Z,101715.19
2022-11-05T10:18:12.347Z,101709.13
2022-11-05T10:21:32.213Z,101703.91
2022-11-05T10:24:43.072Z,101704.72
2022-11-05T10:27:54.776Z,101711.50
2022-11-05T10:31:02.623Z,101725.56
2022-11-05T10:34:07.351Z,101713.38
2022-11-05T10:37:09.333Z,101727.44
2022-11-05T10:41:00.079Z,101722.00
2022-11-05T10:44:11.520Z,101731.53
2022-11-05T10:47:34.929Z,101726.13
2022-11-05T10:50:36.457Z,101730.66
2022-11-05T10:53:38.373Z,101723.78
2022-11-05T10:56:41.035Z,101723.91
2022-11-05T10:59:42.556Z,101729.94
2022-11-05T11:03:05.347Z,101725.22
2022-11-05T11:06:28.513Z,101716.00
2022-11-05T11:09:36.266Z,101719.28
2022-11-05T11:12:42.821Z,101728.19
2022-11-05T11:15:44.236Z,101733.38
2022-11-05T11:18:45.726Z,101730.53
2022-11-05T11:22:14.494Z,101726.16
2022-11-05T11:25:25.425Z,101728.78
2022-11-05T11:28:33.566Z,101721.16
2022-11-05T11:31:38.459Z,101719.63
2022-11-05T11:34:40.598Z,101720.22
2022-11-05T11:37:42.393Z,101712.88
2022-11-05T11:40:44.769Z,101718.75
2022-11-05T11:43:46.419Z,101705.50
2022-11-05T11:46:52.039Z,101709.91
2022-11-05T11:49:55.303Z,101715.34
2022-11-05T11:53:16.700Z,101708.56
2022-11-05T11:56:20.486Z,101716.41
2022-11-05T11:59:53.941Z,101710.41
2022-11-05T12:03:01.617Z,101708.72
2022-11-05T12:06:23.800Z,101706.09
2022-11-05T12:09:35.112Z,101706.16
2022-11-05T12:12:43.389Z,101711.44
2022-11-05T12:15:57.462Z,101709.00
2022-11-05T12:19:13.000Z,101701.88
2022-11-05T12:22:35.521Z,101700.81
2022-11-05T12:25:53.450Z,101694.53
2022-11-05T12:29:30.181Z,101691.28
2022-11-05T12:32:54.163Z,101690.44
2022-11-05T12:36:13.677Z,101675.63
2022-11-05T12:39:41.146Z,101684.50
2022-11-05T12:42:58.670Z,101677.31
2022-11-05T12:46:25.401Z,101679.16
2022-11-05T12:49:54.912Z,101679.16
2022-11-05T12:53:05.353Z,101661.47
2022-11-05T12:56:15.175Z,101662.31
2022-11-05T12:59:37.221Z,101654.44
2022-11-05T13:02:47.756Z,101656.88
2022-11-05T13:05:54.787Z,101647.94
2022-11-05T13:09:16.427Z,101635.53
2022-11-05T13:12:21.856Z,101640.59
2022-11-05T13:15:33.355Z,101643.66
2022-11-05T13:18:49.401Z,101643.06
2022-11-05T13:21:56.587Z,101645.69
2022-11-05T13:25:04.391Z,101636.16
2022-11-05T13:28:25.707Z,101628.19
2022-11-05T13:31:33.170Z,101629.97
2022-11-05T13:34:37.579Z,101638.75
2022-11-05T13:37:44.369Z,101635.44
2022-11-05T13:41:08.319Z,101626.59
2022-11-05T13:44:27.198Z,101628.53
2022-11-05T13:47:43.663Z,101633.81
2022-11-05T13:51:00.259Z,101626.81
2022-11-05T13:54:20.245Z,101628.56
2022-11-05T13:57:27.732Z,101632.09
2022-11-05T14:00:34.623Z,101627.81
2022-11-05T14:03:36.591Z,101627.88
2022-11-05T14:06:38.116Z,101629.69
2022-11-05T14:09:40.980Z,101629.78
2022-11-05T14:12:49.466Z,101626.34
2022-11-05T14:15:56.742Z,101632.53
2022-11-05T14:19:19.905Z,101638.66
2022-11-05T14:22:33.344Z,101634.25
2022-11-05T14:25:34.698Z,101632.56
2022-11-05T14:28:36.055Z,101634.34
2022-11-05T14:32:07.099Z,101637.84
2022-11-05T14:35:15.493Z,101636.06
2022-11-05T14:38:23.595Z,101629.94
2022-11-05T14:41:25.076Z,101633.50
2022-11-05T14:44:28.033Z,101630.94
2022-11-05T14:47:33.819Z,101624.81
2022-11-05T14:50:41.609Z,101622.28
2022-11-05T14:53:43.084Z,101626.66
2022-11-05T14:56:50.505Z,101610.84
2022-11-05T14:59:56.584Z,101606.44
2022-11-05T15:03:04.301Z,101612.50
2022-11-05T15:06:21.080Z,101609.00
2022-11-05T15:09:40.108Z,101603.00
2022-11-05T15:12:54.015Z,101604.81
2022-11-05T15:15:56.473Z,101595.16
2022-11-05T15:18:58.629Z,101610.09
2022-11-05T15:22:22.793Z,101604.84
2022-11-05T15:25:40.618Z,101599.59
2022-11-05T15:28:48.185Z,101597.00
2022-11-05T15:31:50.743Z,101598.78
2022-11-05T15:34:54.293Z,101603.22
2022-11-05T15:38:01.740Z,101597.97
2022-11-05T15:41:16.154Z,101599.75
2022-11-05T15:44:30.200Z,101601.47
2022-11-05T15:47:33.395Z,101591.81
2022-11-05T15:50:34.935Z,101592.75
2022-11-05T15:54:16.083Z,101598.97
2022-11-05T15:57:28.763Z,101596.41
2022-11-05T16:00:32.929Z,101596.47
2022-11-05T16:03:38.022Z,101585.94
2022-11-05T16:06:41.824Z,101583.34
2022-11-05T16:09:52.916Z,101583.31
2022-11-05T16:12:54.375Z,101568.44
2022-11-05T16:15:58.064Z,101568.41
2022-11-05T16:19:00.325Z,101571.09
2022-11-05T16:22:03.466Z,101581.63
2022-11-05T16:25:28.787Z,101574.69
2022-11-05T16:28:30.445Z,101572.13
2022-11-05T16:31:32.357Z,101573.84
2022-11-05T16:34:39.953Z,101573.84
2022-11-05T16:37:41.479Z,101570.31
2022-11-05T16:40:42.927Z,101571.16
2022-11-05T16:43:58.612Z,101565.00
2022-11-05T16:47:00.100Z,101556.25
2022-11-05T16:50:01.549Z,101553.59
2022-11-05T16:53:03.348Z,101543.97
2022-11-05T16:56:05.149Z,101546.59
2022-11-05T16:59:09.254Z,101550.97
2022-11-05T17:02:11.371Z,101554.53
2022-11-05T17:05:22.374Z,101551.00
2022-11-05T17:08:23.814Z,101554.50
2022-11-05T17:11:25.203Z,101554.50
2022-11-05T17:14:26.648Z,101551.84
2022-11-05T17:17:28.051Z,101566.72
2022-11-05T17:20:40.820Z,101561.44
2022-11-05T17:23:42.599Z,101561.41
2022-11-05T17:26:44.029Z,101559.66
2022-11-05T17:29:45.436Z,101578.09
2022-11-05T17:32:46.866Z,101578.16
2022-11-05T17:35:48.896Z,101583.31
2022-11-05T17:38:50.757Z,101584.19
2022-11-05T17:41:54.800Z,101599.09
2022-11-05T17:44:56.185Z,101599.97
2022-11-05T17:47:57.644Z,101605.25
2022-11-05T17:50:59.135Z,101602.59
2022-11-05T17:54:00.608Z,101600.00
2022-11-05T17:57:03.754Z,101593.81
2022-11-05T18:00:05.875Z,101589.47
2022-11-05T18:03:12.621Z,101586.03
2022-11-05T18:06:14.320Z,101581.66
2022-11-05T18:09:16.153Z,101579.03
2022-11-05T18:12:17.585Z,101571.97
2022-11-05T18:15:19.113Z,101579.88
2022-11-05T18:18:21.778Z,101575.44
2022-11-05T18:21:23.248Z,101570.16
2022-11-05T18:24:24.676Z,101556.16
2022-11-05T18:27:26.360Z,101557.84
2022-11-05T18:30:27.943Z,101549.09
2022-11-05T18:33:29.574Z,101548.25
2022-11-05T18:36:32.344Z,101537.69
2022-11-05T18:39:33.750Z,101549.13
2022-11-05T18:42:35.395Z,101549.94
2022-11-05T18:45:36.883Z,101542.06
2022-11-05T18:48:38.529Z,101540.31
2022-11-05T18:51:40.314Z,101518.34
2022-11-05T18:54:42.027Z,101512.09
2022-11-05T18:57:43.468Z,101502.47
2022-11-05T19:00:45.007Z,101503.41
2022-11-05T19:03:47.260Z,101489.41
2022-11-05T19:06:48.696Z,101490.31
2022-11-05T19:09:50.151Z,101492.91
2022-11-05T19:12:51.861Z,101508.63
2022-11-05T19:15:53.280Z,101512.09
2022-11-05T19:18:58.627Z,101498.94
2022-11-05T19:22:00.105Z,101490.16
2022-11-05T19:25:01.540Z,101503.31
2022-11-05T19:28:03.251Z,101505.06
2022-11-05T19:31:05.313Z,101514.69
2022-11-05T19:34:06.726Z,101505.94
2022-11-05T19:37:08.155Z,101493.59
2022-11-05T19:40:10.716Z,101492.66
2022-11-05T19:43:12.245Z,101477.72
2022-11-05T19:46:17.369Z,101463.78
2022-11-05T19:49:18.832Z,101476.19
2022-11-05T19:52:20.387Z,101479.72
2022-11-05T19:55:21.944Z,101479.75
2022-11-05T19:58:23.350Z,101471.00
2022-11-05T20:01:27.071Z,101475.34
2022-11-05T20:04:28.554Z,101470.09
2022-11-05T20:07:30.306Z,101475.34
2022-11-05T20:10:31.754Z,101472.69
2022-11-05T20:13:33.635Z,101472.75
2022-11-05T20:16:36.054Z,101473.56
2022-11-05T20:19:37.515Z,101472.63
2022-11-05T20:22:38.960Z,101459.53
2022-11-05T20:25:40.736Z,101452.47
2022-11-05T20:28:43.341Z,101457.72
2022-11-05T20:31:44.855Z,101457.75
2022-11-05T20:34:46.258Z,101449.78
2022-11-05T20:37:52.805Z,101453.31
2022-11-05T20:40:55.464Z,101455.13
2022-11-05T20:43:56.882Z,101469.22
2022-11-05T20:46:58.301Z,101470.13
2022-11-05T20:49:59.759Z,101471.94
2022-11-05T20:53:01.205Z,101482.44
2022-11-05T20:56:07.677Z,101477.25
2022-11-05T20:59:09.359Z,101484.28
2022-11-05T21:02:11.819Z,101479.84
2022-11-05T21:05:13.355Z,101477.22
2022-11-05T21:08:15.505Z,101470.22
2022-11-05T21:11:18.717Z,101477.22
2022-11-05T21:14:20.217Z,101468.50
2022-11-05T21:17:21.630Z,101459.81
2022-11-05T21:20:23.218Z,101461.69
2022-11-05T21:23:24.631Z,101464.31
2022-11-05T21:26:26.025Z,101458.09
2022-11-05T21:29:27.642Z,101464.19
2022-11-05T21:32:29.303Z,101465.06
2022-11-05T21:35:31.335Z,101457.16
2022-11-05T21:38:32.746Z,101455.34
2022-11-05T21:41:34.261Z,101466.75
2022-11-05T21:44:35.652Z,101470.22
2022-11-05T21:47:37.049Z,101457.91
2022-11-05T21:50:39.042Z,101449.03
2022-11-05T21:53:40.862Z,101449.91
2022-11-05T21:56:44.346Z,101447.25
2022-11-05T21:59:46.824Z,101447.28
2022-11-05T22:02:48.390Z,101456.06
2022-11-05T22:05:50.076Z,101439.34
2022-11-05T22:08:51.680Z,101442.91
2022-11-05T22:11:53.591Z,101439.38
2022-11-05T22:14:55.154Z,101442.03
2022-11-05T22:17:56.609Z,101457.84
2022-11-05T22:20:57.999Z,101450.91
2022-11-05T22:23:59.685Z,101426.34
2022-11-05T22:27:03.423Z,101428.06
2022-11-05T22:30:05.379Z,101427.13
2022-11-05T22:33:06.819Z,101434.09
2022-11-05T22:36:09.473Z,101426.22
2022-11-05T22:39:12.072Z,101416.59
2022-11-05T22:42:14.150Z,101421.84
2022-11-05T22:45:15.644Z,101430.69
2022-11-05T22:48:17.096Z,101428.88
2022-11-05T22:51:21.687Z,101424.50
2022-11-05T22:54:23.121Z,101421.03
2022-11-05T22:57:24.576Z,101414.06
2022-11-05T23:00:35.087Z,101404.38
2022-11-05T23:03:36.494Z,101397.31
2022-11-05T23:06:37.943Z,101401.72
2022-11-05T23:09:39.354Z,101394.69
2022-11-05T23:12:40.972Z,101395.53
2022-11-05T23:15:42.415Z,101391.97
2022-11-05T23:18:43.843Z,101389.34
2022-11-05T23:21:45.235Z,101394.63
2022-11-05T23:24:47.799Z,101388.47
2022-11-05T23:27:51.720Z,101379.63
2022-11-05T23:30:53.144Z,101369.09
2022-11-05T23:33:54.632Z,101379.63
2022-11-05T23:36:56.069Z,101362.97
2022-11-05T23:39:57.569Z,101359.47
2022-11-05T23:42:58.996Z,101369.09
2022-11-05T23:46:00.420Z,101369.94
2022-11-05T23:49:01.872Z,101382.25
2022-11-05T23:52:03.428Z,101362.00
2022-11-05T23:55:05.203Z,101369.91
2022-11-05T23:58:06.989Z,101361.09
